Time;durP1;ratioP1;P1;durP2;ratioP2;P2;SDS_P1;SDS_P2;PMS_P1;PMS_P2;Temp;Humidity;BMP_temperature;BMP_pressure;BME280_temperature;BME280_humidity;BME280_pressure;Samples;Min_cycle;Max_cycle;Signal;HPM_P1;HPM_P2
2022/10/08 00:01:29;;;;;;;11.65;10.15;;;14.10;99.90;;;;;;5073481;28;20205;-85
2022/10/08 00:03:58;;;;;;;12.23;10.20;;;14.10;99.90;;;;;;5073480;28;20227;-85
2022/10/08 00:06:29;;;;;;;11.10;10.13;;;14.00;99.90;;;;;;5073474;28;20225;-84
2022/10/08 00:09:01;;;;;;;12.45;9.98;;;14.00;99.90;;;;;;5073481;28;20208;-84
2022/10/08 00:11:31;;;;;;;12.00;10.75;;;14.00;99.90;;;;;;5073490;28;20205;-85
2022/10/08 00:14:01;;;;;;;10.65;9.65;;;13.90;99.90;;;;;;5073115;28;20212;-84
2022/10/08 00:16:31;;;;;;;11.55;10.52;;;13.90;99.90;;;;;;5072668;28;20225;-84
2022/10/08 00:19:02;;;;;;;11.20;10.20;;;13.90;99.90;;;;;;5072807;28;20283;-85
2022/10/08 00:21:32;;;;;;;11.15;10.05;;;13.90;99.90;;;;;;5073263;28;20215;-84
2022/10/08 00:24:03;;;;;;;11.02;9.98;;;13.80;99.90;;;;;;5073012;28;20197;-84
2022/10/08 00:26:33;;;;;;;15.43;10.18;;;13.80;99.90;;;;;;5072850;28;20236;-84
2022/10/08 00:29:08;;;;;;;10.70;9.77;;;13.70;99.90;;;;;;5072828;28;20213;-84
2022/10/08 00:31:39;;;;;;;12.00;10.65;;;13.70;99.90;;;;;;5073418;28;20209;-85
2022/10/08 00:34:11;;;;;;;12.27;11.18;;;13.60;99.90;;;;;;5073110;28;20210;-84
2022/10/08 00:36:41;;;;;;;14.48;10.88;;;13.60;99.90;;;;;;5072709;28;20269;-84
2022/10/08 00:39:14;;;;;;;11.60;10.60;;;13.60;99.90;;;;;;5072577;28;20212;-84
2022/10/08 00:41:44;;;;;;;11.55;10.23;;;13.60;99.90;;;;;;5072840;28;20213;-85
2022/10/08 00:44:52;;;;;;;12.35;10.80;;;13.60;99.90;;;;;;5073026;28;20205;-84
2022/10/08 00:47:30;;;;;;;12.30;11.20;;;13.60;99.90;;;;;;5072488;28;20237;-84
2022/10/08 00:50:01;;;;;;;12.00;10.88;;;13.60;99.90;;;;;;5072178;28;20205;-85
2022/10/08 00:52:33;;;;;;;11.10;10.15;;;13.60;99.90;;;;;;5072818;28;20213;-84
2022/10/08 00:55:07;;;;;;;12.25;11.15;;;13.50;99.90;;;;;;5072518;28;20225;-84
2022/10/08 00:57:37;;;;;;;12.30;11.27;;;13.50;99.90;;;;;;5072836;28;20232;-84
2022/10/08 01:00:08;;;;;;;13.82;12.43;;;13.50;99.90;;;;;;5072645;28;20208;-84
2022/10/08 01:02:36;;;;;;;12.13;11.10;;;13.50;99.90;;;;;;5072580;28;20201;-84
2022/10/08 01:05:06;;;;;;;15.45;12.18;;;13.50;99.90;;;;;;5072882;28;20209;-85
2022/10/08 01:07:42;;;;;;;12.35;11.15;;;13.50;99.90;;;;;;5072572;28;20231;-84
2022/10/08 01:10:21;;;;;;;18.80;11.68;;;13.50;99.90;;;;;;5072741;28;20209;-84
2022/10/08 01:13:07;;;;;;;13.48;11.85;;;13.40;99.90;;;;;;5072516;28;20213;-85
2022/10/08 01:15:44;;;;;;;13.23;11.82;;;13.40;99.90;;;;;;5072281;28;20239;-84
2022/10/08 01:18:22;;;;;;;22.02;11.77;;;13.40;99.90;;;;;;5072323;28;20233;-84
2022/10/08 01:21:02;;;;;;;12.98;11.65;;;13.40;99.90;;;;;;5072096;28;20213;-84
2022/10/08 01:24:03;;;;;;;13.55;12.25;;;13.40;99.90;;;;;;5072752;28;20209;-84
2022/10/08 01:26:44;;;;;;;12.75;11.02;;;13.30;99.90;;;;;;5072038;28;20229;-84
2022/10/08 01:29:20;;;;;;;11.73;10.57;;;13.30;99.90;;;;;;5072306;28;20205;-83
2022/10/08 01:31:53;;;;;;;12.82;11.57;;;13.30;99.90;;;;;;5072348;28;20204;-83
2022/10/08 01:34:27;;;;;;;14.35;12.23;;;13.30;99.90;;;;;;5072848;28;20224;-84
2022/10/08 01:36:57;;;;;;;12.40;11.23;;;13.30;99.90;;;;;;5072350;28;20225;-83
2022/10/08 01:39:31;;;;;;;14.85;13.30;;;13.30;99.90;;;;;;5072182;28;20201;-85
2022/10/08 01:42:00;;;;;;;13.73;12.15;;;13.20;99.90;;;;;;5072163;28;20209;-85
2022/10/08 01:44:34;;;;;;;15.75;12.52;;;13.30;99.90;;;;;;5072481;28;20209;-85
2022/10/08 01:47:07;;;;;;;12.07;10.90;;;13.20;99.90;;;;;;5072438;28;20235;-85
2022/10/08 01:49:42;;;;;;;13.55;12.35;;;13.30;99.90;;;;;;5072148;28;20220;-84
2022/10/08 01:52:17;;;;;;;12.52;11.55;;;13.30;99.90;;;;;;5072382;28;20211;-83
2022/10/08 01:54:48;;;;;;;17.63;13.43;;;13.30;99.90;;;;;;5072389;28;20213;-83
2022/10/08 01:57:16;;;;;;;13.52;12.25;;;13.40;99.90;;;;;;5072254;28;20232;-83
2022/10/08 01:59:51;;;;;;;16.10;12.48;;;13.30;99.90;;;;;;5075948;28;20208;-84
2022/10/08 02:02:22;;;;;;;13.15;11.15;;;13.30;99.90;;;;;;5076283;28;20216;-84
2022/10/08 02:04:52;;;;;;;12.25;11.07;;;13.40;99.90;;;;;;5075671;28;20224;-84
2022/10/08 02:07:23;;;;;;;15.02;12.23;;;13.40;99.90;;;;;;5075785;28;20224;-84
2022/10/08 02:10:00;;;;;;;14.50;11.75;;;13.40;99.90;;;;;;5075623;28;20217;-84
2022/10/08 02:12:30;;;;;;;12.23;11.13;;;13.30;99.90;;;;;;5075777;28;20208;-83
2022/10/08 02:15:00;;;;;;;11.98;10.68;;;13.30;99.90;;;;;;5075552;28;20209;-83
2022/10/08 02:17:39;;;;;;;12.95;11.88;;;13.30;99.90;;;;;;5075454;28;20233;-84
2022/10/08 02:20:17;;;;;;;13.07;11.82;;;13.20;99.90;;;;;;5075048;28;20215;-83
2022/10/08 02:22:52;;;;;;;13.48;12.10;;;13.30;99.90;;;;;;5075283;28;20211;-84
2022/10/08 02:25:28;;;;;;;12.75;11.70;;;13.30;99.90;;;;;;5075391;28;20220;-84
2022/10/08 02:28:07;;;;;;;15.52;13.05;;;13.30;99.90;;;;;;5075276;28;20224;-84
2022/10/08 02:30:43;;;;;;;12.85;11.75;;;13.20;99.90;;;;;;5075500;28;20200;-83
2022/10/08 02:33:15;;;;;;;15.07;13.75;;;13.30;99.90;;;;;;5075315;28;20213;-84
2022/10/08 02:35:47;;;;;;;14.00;12.55;;;13.30;99.90;;;;;;5075548;28;20224;-84
2022/10/08 02:38:21;;;;;;;14.40;12.98;;;13.30;99.90;;;;;;5074953;28;20229;-84
2022/10/08 02:40:52;;;;;;;13.93;12.57;;;13.40;99.90;;;;;;5075122;28;20212;-84
2022/10/08 02:43:25;;;;;;;14.10;12.30;;;13.40;99.90;;;;;;5075323;28;20209;-83
2022/10/08 02:46:00;;;;;;;13.05;11.50;;;13.50;99.90;;;;;;5074949;28;20219;-84
2022/10/08 02:48:30;;;;;;;13.43;11.55;;;13.50;99.90;;;;;;5074512;28;20254;-84
2022/10/08 02:51:03;;;;;;;12.27;11.18;;;13.50;99.90;;;;;;5074559;28;20216;-83
2022/10/08 02:53:32;;;;;;;12.00;10.68;;;13.50;99.90;;;;;;5074821;28;20205;-84
2022/10/08 02:56:11;;;;;;;11.38;10.25;;;13.50;99.90;;;;;;5074777;28;20224;-84
2022/10/08 02:58:40;;;;;;;12.13;11.02;;;13.60;99.90;;;;;;5074572;28;20220;-83
2022/10/08 03:01:16;;;;;;;12.63;11.50;;;13.60;99.90;;;;;;5074404;28;20203;-84
2022/10/08 03:03:50;;;;;;;12.70;11.57;;;13.60;99.90;;;;;;5074653;28;20212;-84
2022/10/08 03:06:18;;;;;;;11.65;10.48;;;13.70;99.90;;;;;;5074447;28;20205;-84
2022/10/08 03:08:49;;;;;;;15.32;13.93;;;13.70;99.90;;;;;;5074304;28;20209;-84
2022/10/08 03:11:17;;;;;;;19.38;17.52;;;13.80;99.90;;;;;;5074402;28;20209;-84
2022/10/08 03:13:48;;;;;;;18.20;16.55;;;13.80;99.90;;;;;;5074479;28;20231;-84
2022/10/08 03:16:21;;;;;;;23.52;21.15;;;13.80;99.90;;;;;;5074235;28;20217;-84
2022/10/08 03:18:51;;;;;;;22.80;20.40;;;13.80;99.90;;;;;;5074429;28;20209;-84
2022/10/08 03:21:20;;;;;;;21.65;19.45;;;13.80;99.90;;;;;;5074237;28;20208;-84
2022/10/08 03:23:48;;;;;;;25.67;21.00;;;13.70;99.90;;;;;;5074200;28;20224;-84
2022/10/08 03:26:17;;;;;;;22.13;20.08;;;13.70;99.90;;;;;;5073988;28;20205;-84
2022/10/08 03:28:45;;;;;;;23.45;21.20;;;13.80;99.90;;;;;;5074171;28;20205;-84
2022/10/08 03:31:13;;;;;;;24.70;20.75;;;13.70;99.90;;;;;;5074567;28;20228;-84
2022/10/08 03:33:43;;;;;;;21.95;19.65;;;13.60;99.90;;;;;;5074090;28;20209;-84
2022/10/08 03:36:11;;;;;;;23.90;20.52;;;13.50;99.90;;;;;;5073983;28;20209;-84
2022/10/08 03:38:39;;;;;;;24.25;20.92;;;13.40;99.90;;;;;;5073556;28;20216;-84
2022/10/08 03:41:09;;;;;;;25.83;18.33;;;13.40;99.90;;;;;;5074187;28;20209;-85
2022/10/08 03:43:37;;;;;;;30.33;21.80;;;13.40;99.90;;;;;;5073669;28;20204;-85
2022/10/08 03:46:06;;;;;;;25.73;20.70;;;13.40;99.90;;;;;;5073727;28;20204;-84
2022/10/08 03:48:35;;;;;;;27.38;21.73;;;13.30;99.90;;;;;;5073463;28;20235;-84
2022/10/08 03:51:08;;;;;;;26.88;21.83;;;13.40;99.90;;;;;;5073337;28;20212;-84
2022/10/08 03:53:38;;;;;;;26.98;23.48;;;13.40;99.90;;;;;;5073716;28;20219;-84
2022/10/08 03:56:08;;;;;;;23.25;20.85;;;13.40;99.90;;;;;;5073343;28;20212;-84
2022/10/08 03:58:37;;;;;;;23.88;21.48;;;13.40;99.90;;;;;;5073519;28;20205;-84
2022/10/08 04:01:07;;;;;;;24.95;22.42;;;13.40;99.90;;;;;;5073486;28;20216;-85
2022/10/08 04:03:36;;;;;;;25.58;22.95;;;13.40;99.90;;;;;;5073354;28;20204;-84
2022/10/08 04:06:06;;;;;;;26.50;23.08;;;13.40;99.90;;;;;;5073273;28;20209;-84
2022/10/08 04:08:35;;;;;;;23.75;21.42;;;13.40;99.90;;;;;;5073147;28;20217;-84
2022/10/08 04:11:04;;;;;;;26.42;23.70;;;13.50;99.90;;;;;;5073146;28;20212;-84
2022/10/08 04:13:32;;;;;;;23.38;21.08;;;13.50;99.90;;;;;;5073302;28;20219;-84
2022/10/08 04:16:02;;;;;;;23.77;21.35;;;13.40;99.90;;;;;;5073322;28;20205;-84
2022/10/08 04:18:31;;;;;;;40.45;24.23;;;13.40;99.90;;;;;;5072644;28;20229;-84
2022/10/08 04:20:59;;;;;;;26.08;23.48;;;13.40;99.90;;;;;;5072498;28;20212;-84
2022/10/08 04:23:31;;;;;;;26.05;23.38;;;13.30;99.90;;;;;;5072868;28;20205;-84
2022/10/08 04:26:00;;;;;;;26.15;23.55;;;13.30;99.90;;;;;;5073103;28;20217;-84
2022/10/08 04:28:28;;;;;;;26.48;22.80;;;13.30;99.90;;;;;;5072878;28;20228;-84
2022/10/08 04:31:02;;;;;;;26.95;23.17;;;13.30;99.90;;;;;;5073051;28;20292;-84
2022/10/08 04:33:32;;;;;;;26.20;23.58;;;13.30;99.90;;;;;;5073198;28;20209;-84
2022/10/08 04:36:01;;;;;;;25.73;23.10;;;13.30;99.90;;;;;;5073014;28;20216;-84
2022/10/08 04:38:30;;;;;;;27.88;24.58;;;13.30;99.90;;;;;;5072477;28;20236;-84
2022/10/08 04:41:03;;;;;;;25.40;22.73;;;13.30;99.90;;;;;;5073369;28;20209;-84
2022/10/08 04:43:32;;;;;;;24.73;22.20;;;13.20;99.90;;;;;;5072882;28;20215;-84
2022/10/08 04:46:00;;;;;;;24.95;22.45;;;13.30;99.90;;;;;;5072939;28;20212;-84
2022/10/08 04:48:28;;;;;;;25.17;22.67;;;13.30;99.90;;;;;;5072433;28;20221;-84
2022/10/08 04:50:58;;;;;;;26.52;22.75;;;13.30;99.90;;;;;;5072580;28;20209;-84
2022/10/08 04:53:26;;;;;;;25.17;22.52;;;13.30;99.90;;;;;;5072695;28;20205;-84
2022/10/08 04:55:56;;;;;;;22.88;20.70;;;13.30;99.90;;;;;;5073045;28;20232;-84
2022/10/08 04:58:26;;;;;;;27.38;21.30;;;13.40;99.90;;;;;;5072175;28;20225;-84
2022/10/08 05:00:54;;;;;;;25.27;22.38;;;13.30;99.90;;;;;;5072541;28;20209;-84
2022/10/08 05:03:22;;;;;;;24.02;21.38;;;13.40;99.90;;;;;;5072419;28;20197;-84
2022/10/08 05:05:50;;;;;;;26.65;22.15;;;13.40;99.90;;;;;;5072822;28;20211;-84
2022/10/08 05:08:18;;;;;;;25.75;23.02;;;13.40;99.90;;;;;;5072363;28;20216;-84
2022/10/08 05:10:49;;;;;;;26.55;22.23;;;13.50;99.90;;;;;;5072577;28;20204;-84
2022/10/08 05:13:18;;;;;;;33.50;22.55;;;13.50;99.90;;;;;;5072583;28;20205;-83
2022/10/08 05:15:47;;;;;;;22.63;20.33;;;13.50;99.90;;;;;;5072463;28;20208;-83
2022/10/08 05:18:16;;;;;;;22.88;20.67;;;13.50;99.90;;;;;;5071971;28;20251;-83
2022/10/08 05:20:44;;;;;;;21.70;19.50;;;13.40;99.90;;;;;;5072161;28;20201;-83
2022/10/08 05:23:12;;;;;;;24.08;21.58;;;13.40;99.90;;;;;;5072299;28;20205;-84
2022/10/08 05:25:40;;;;;;;22.77;20.65;;;13.40;99.90;;;;;;5072520;28;20224;-84
2022/10/08 05:28:09;;;;;;;23.83;21.38;;;13.40;99.90;;;;;;5072257;28;20221;-84
2022/10/08 05:30:38;;;;;;;21.17;19.08;;;13.40;99.90;;;;;;5072194;28;20205;-84
2022/10/08 05:33:07;;;;;;;22.30;20.00;;;13.40;99.90;;;;;;5074021;28;20209;-84
2022/10/08 05:35:38;;;;;;;23.38;20.95;;;13.50;99.90;;;;;;5076433;28;20205;-84
2022/10/08 05:38:06;;;;;;;25.95;20.45;;;13.50;99.90;;;;;;5076165;28;20278;-84
2022/10/08 05:40:34;;;;;;;20.40;18.30;;;13.50;99.90;;;;;;5075747;28;20213;-84
2022/10/08 05:43:02;;;;;;;20.65;18.70;;;13.50;99.90;;;;;;5076283;28;20291;-84
2022/10/08 05:45:31;;;;;;;23.08;17.98;;;13.60;99.90;;;;;;5076155;28;20213;-84
2022/10/08 05:48:00;;;;;;;21.35;19.27;;;13.60;99.90;;;;;;5076090;28;20229;-84
2022/10/08 05:50:28;;;;;;;22.00;19.15;;;13.60;99.90;;;;;;5075643;28;20206;-84
2022/10/08 05:52:57;;;;;;;23.10;19.90;;;13.60;99.90;;;;;;5075916;28;20208;-84
2022/10/08 05:55:26;;;;;;;22.00;19.92;;;13.60;99.90;;;;;;5075728;28;20205;-83
2022/10/08 05:57:54;;;;;;;23.33;17.80;;;13.50;99.90;;;;;;5075621;28;20232;-84
2022/10/08 06:00:22;;;;;;;23.67;19.65;;;13.50;99.90;;;;;;5075417;28;20235;-84
2022/10/08 06:02:50;;;;;;;22.15;19.83;;;13.50;99.90;;;;;;5075882;28;20284;-84
2022/10/08 06:05:20;;;;;;;24.83;20.23;;;13.50;99.90;;;;;;5075970;28;20262;-84
2022/10/08 06:07:48;;;;;;;34.55;19.60;;;13.50;99.90;;;;;;5075362;28;20221;-84
2022/10/08 06:10:17;;;;;;;20.00;18.10;;;13.50;99.90;;;;;;5075820;28;20208;-84
2022/10/08 06:12:48;;;;;;;26.52;18.40;;;13.50;99.90;;;;;;5075639;28;20201;-84
2022/10/08 06:15:17;;;;;;;20.67;18.52;;;13.50;99.90;;;;;;5075625;28;20201;-84
2022/10/08 06:17:45;;;;;;;26.73;18.80;;;13.50;99.90;;;;;;5075029;28;20221;-84
2022/10/08 06:20:13;;;;;;;19.65;17.75;;;13.60;99.90;;;;;;5074928;28;20201;-84
2022/10/08 06:22:43;;;;;;;25.80;20.25;;;13.60;99.90;;;;;;5075161;28;20228;-84
2022/10/08 06:25:12;;;;;;;20.73;18.73;;;13.70;99.90;;;;;;5075317;28;20350;-84
2022/10/08 06:27:40;;;;;;;23.55;18.52;;;13.80;99.90;;;;;;5075365;28;20227;-84
2022/10/08 06:30:10;;;;;;;21.70;18.88;;;13.90;99.90;;;;;;5074690;28;20208;-84
2022/10/08 06:32:38;;;;;;;21.45;19.30;;;13.90;99.90;;;;;;5075332;28;20213;-84
2022/10/08 06:35:06;;;;;;;40.53;19.75;;;14.00;99.90;;;;;;5075213;28;20212;-84
2022/10/08 06:37:35;;;;;;;22.55;18.95;;;14.10;99.90;;;;;;5075047;28;20232;-84
2022/10/08 06:40:05;;;;;;;20.92;18.70;;;14.00;99.90;;;;;;5074928;28;20220;-84
2022/10/08 06:42:33;;;;;;;17.83;16.05;;;14.10;99.90;;;;;;5074885;28;20220;-84
2022/10/08 06:45:02;;;;;;;23.00;19.20;;;14.20;99.90;;;;;;5073873;28;20270;-84
2022/10/08 06:47:30;;;;;;;19.42;17.42;;;14.20;99.90;;;;;;5075014;28;20221;-84
2022/10/08 06:49:59;;;;;;;18.25;16.45;;;14.20;99.90;;;;;;5074819;28;20200;-84
2022/10/08 06:52:28;;;;;;;17.67;15.85;;;14.20;99.90;;;;;;5074770;28;20209;-84
2022/10/08 06:54:56;;;;;;;18.42;16.42;;;14.20;99.90;;;;;;5075099;28;20201;-84
2022/10/08 06:57:26;;;;;;;18.73;16.55;;;14.20;99.90;;;;;;5074998;28;20236;-84
2022/10/08 06:59:56;;;;;;;17.98;16.35;;;14.30;99.90;;;;;;5074398;28;20229;-85
2022/10/08 07:02:24;;;;;;;17.50;15.63;;;14.30;99.90;;;;;;5074621;28;20209;-85
2022/10/08 07:04:53;;;;;;;26.63;17.60;;;14.30;99.90;;;;;;5074211;28;20217;-85
2022/10/08 07:07:21;;;;;;;17.25;15.52;;;14.30;99.90;;;;;;5074555;28;20225;-83
2022/10/08 07:09:49;;;;;;;18.15;16.35;;;14.40;99.90;;;;;;5074254;28;20204;-83
2022/10/08 07:12:17;;;;;;;17.38;15.63;;;14.30;99.90;;;;;;5074478;28;20213;-84
2022/10/08 07:14:47;;;;;;;22.13;17.85;;;14.20;99.90;;;;;;5074314;28;20204;-84
2022/10/08 07:17:15;;;;;;;20.77;18.73;;;14.20;99.90;;;;;;5074157;28;20217;-83
2022/10/08 07:19:43;;;;;;;18.98;17.13;;;14.10;99.90;;;;;;5074241;28;20232;-84
2022/10/08 07:22:12;;;;;;;19.25;17.05;;;14.10;99.90;;;;;;5074227;28;20216;-84
2022/10/08 07:24:40;;;;;;;19.48;16.88;;;14.10;99.90;;;;;;5074304;28;20220;-84
2022/10/08 07:27:08;;;;;;;20.30;17.95;;;14.20;99.90;;;;;;5074112;28;20232;-84
2022/10/08 07:29:36;;;;;;;18.67;16.98;;;14.30;99.90;;;;;;5073987;28;20205;-84
2022/10/08 07:32:06;;;;;;;19.90;17.67;;;14.30;99.90;;;;;;5074176;28;20209;-84
2022/10/08 07:34:34;;;;;;;23.73;18.20;;;14.30;99.90;;;;;;5073971;28;20215;-84
2022/10/08 07:37:02;;;;;;;19.40;17.45;;;14.40;99.90;;;;;;5073823;28;20228;-84
2022/10/08 07:39:31;;;;;;;22.13;19.83;;;14.40;99.90;;;;;;5073555;28;20214;-84
2022/10/08 07:41:59;;;;;;;20.98;18.88;;;14.50;99.90;;;;;;5073854;28;20216;-84
2022/10/08 07:44:27;;;;;;;20.55;18.40;;;14.50;99.90;;;;;;5073595;28;20208;-84
2022/10/08 07:46:55;;;;;;;20.65;18.60;;;14.60;99.90;;;;;;5073747;28;20244;-84
2022/10/08 07:49:25;;;;;;;20.58;18.42;;;14.60;99.90;;;;;;5073504;28;20213;-84
2022/10/08 07:51:53;;;;;;;18.85;16.92;;;14.60;99.90;;;;;;5073304;28;20225;-84
2022/10/08 07:54:22;;;;;;;17.60;15.63;;;14.60;99.90;;;;;;5073329;28;20216;-84
2022/10/08 07:56:50;;;;;;;20.13;17.98;;;14.60;99.90;;;;;;5073233;28;20244;-83
2022/10/08 07:59:18;;;;;;;19.67;17.65;;;14.70;99.90;;;;;;5073445;28;20220;-85
2022/10/08 08:01:46;;;;;;;18.17;16.38;;;14.70;99.90;;;;;;5073345;28;20218;-84
2022/10/08 08:04:14;;;;;;;17.58;15.95;;;14.80;99.90;;;;;;5073448;28;20217;-85
2022/10/08 08:06:47;;;;;;;20.50;16.23;;;14.80;99.90;;;;;;5073165;28;20236;-84
2022/10/08 08:09:17;;;;;;;17.60;15.73;;;14.90;99.90;;;;;;5072983;28;20262;-85
2022/10/08 08:11:46;;;;;;;17.42;15.73;;;15.00;99.90;;;;;;5073210;28;20266;-85
2022/10/08 08:14:14;;;;;;;19.33;14.55;;;15.10;99.90;;;;;;5073494;28;20216;-85
2022/10/08 08:16:42;;;;;;;15.80;14.20;;;15.20;99.90;;;;;;5073145;28;20337;-85
2022/10/08 08:19:11;;;;;;;16.63;14.95;;;15.20;99.90;;;;;;5072804;28;20221;-84
2022/10/08 08:21:39;;;;;;;15.75;14.15;;;15.30;99.90;;;;;;5072839;28;20216;-84
2022/10/08 08:24:11;;;;;;;15.43;13.85;;;15.40;99.90;;;;;;5073013;28;20207;-84
2022/10/08 08:26:42;;;;;;;15.90;14.07;;;15.40;99.90;;;;;;5073275;28;20235;-84
2022/10/08 08:29:12;;;;;;;14.05;12.75;;;15.50;99.90;;;;;;5073018;28;20201;-84
2022/10/08 08:31:42;;;;;;;14.23;12.57;;;15.70;99.90;;;;;;5072949;28;20244;-84
2022/10/08 08:34:12;;;;;;;16.40;14.90;;;15.90;99.90;;;;;;5072956;28;20212;-84
2022/10/08 08:36:43;;;;;;;16.20;14.60;;;16.10;99.90;;;;;;5072705;28;20225;-83
2022/10/08 08:39:17;;;;;;;26.25;14.55;;;16.20;99.90;;;;;;5072989;28;20228;-84
2022/10/08 08:42:20;;;;;;;16.67;14.98;;;16.30;99.90;;;;;;5072831;28;20209;-84
2022/10/08 08:44:53;;;;;;;14.65;12.65;;;16.40;99.90;;;;;;5070696;28;20205;-84
2022/10/08 08:47:25;;;;;;;20.83;15.13;;;16.70;99.90;;;;;;5072757;28;20233;-84
2022/10/08 08:49:55;;;;;;;27.17;15.55;;;17.00;99.90;;;;;;5072225;28;20208;-84
2022/10/08 08:52:27;;;;;;;17.27;14.20;;;17.20;99.90;;;;;;5072980;28;20274;-84
2022/10/08 08:54:57;;;;;;;15.07;12.95;;;17.50;99.90;;;;;;5072870;28;20216;-84
2022/10/08 08:57:35;;;;;;;17.27;13.32;;;17.70;99.90;;;;;;5072534;28;20233;-84
2022/10/08 09:00:07;;;;;;;14.90;12.52;;;17.90;99.90;;;;;;5072458;28;20224;-84
2022/10/08 09:02:40;;;;;;;16.05;13.00;;;18.30;99.90;;;;;;5072433;28;20213;-84
2022/10/08 09:05:12;;;;;;;12.75;11.52;;;18.80;99.90;;;;;;5072699;28;20213;-84
2022/10/08 09:07:45;;;;;;;12.63;11.50;;;19.40;99.90;;;;;;5073532;28;20220;-84
2022/10/08 09:10:20;;;;;;;12.65;11.45;;;20.00;99.90;;;;;;5076928;28;20205;-83
2022/10/08 09:12:51;;;;;;;11.43;10.32;;;20.50;99.90;;;;;;5076840;28;20196;-84
2022/10/08 09:15:33;;;;;;;13.68;8.10;;;20.80;99.90;;;;;;5076674;28;20212;-83
2022/10/08 09:18:03;;;;;;;7.57;6.78;;;21.00;99.90;;;;;;5076706;28;20224;-83
2022/10/08 09:20:32;;;;;;;8.45;7.47;;;21.10;99.90;;;;;;5076080;28;20224;-84
2022/10/08 09:23:13;;;;;;;11.05;9.35;;;21.00;99.90;;;;;;5076551;28;20300;-83
2022/10/08 09:25:47;;;;;;;14.10;9.43;;;20.80;99.90;;;;;;5076302;28;20216;-84
2022/10/08 09:28:39;;;;;;;11.93;9.23;;;20.80;99.90;;;;;;5076425;28;20238;-84
2022/10/08 09:31:24;;;;;;;10.48;9.48;;;20.90;99.90;;;;;;5076224;28;20201;-84
2022/10/08 09:33:59;;;;;;;18.40;10.30;;;20.80;99.90;;;;;;5076782;28;20239;-84
2022/10/08 09:36:33;;;;;;;10.88;9.32;;;20.90;99.90;;;;;;5076442;28;20217;-84
2022/10/08 09:39:03;;;;;;;11.80;9.27;;;21.10;99.90;;;;;;5076173;28;20213;-84
2022/10/08 09:41:33;;;;;;;13.85;8.85;;;21.40;99.90;;;;;;5076043;28;20210;-84
2022/10/08 09:44:15;;;;;;;13.95;10.25;;;21.60;99.90;;;;;;5076226;28;20208;-84
2022/10/08 09:46:45;;;;;;;16.45;10.32;;;21.80;99.90;;;;;;5076350;28;20225;-83
2022/10/08 09:49:31;;;;;;;14.90;11.10;;;21.90;99.90;;;;;;5076022;28;20205;-84
2022/10/08 09:52:03;;;;;;;11.30;10.10;;;21.80;99.90;;;;;;5076034;28;20212;-84
2022/10/08 09:54:37;;;;;;;11.63;9.77;;;21.80;99.90;;;;;;5076050;28;20201;-84
2022/10/08 09:57:07;;;;;;;11.20;9.90;;;21.80;99.90;;;;;;5075788;28;20236;-84
2022/10/08 09:59:41;;;;;;;11.57;10.43;;;21.70;99.90;;;;;;5075846;28;20208;-84
2022/10/08 10:02:29;;;;;;;12.30;9.48;;;21.70;99.90;;;;;;5076185;28;20204;-84
2022/10/08 10:04:59;;;;;;;11.30;9.70;;;21.80;99.90;;;;;;5075930;28;20224;-83
2022/10/08 10:07:37;;;;;;;10.57;9.57;;;21.90;99.90;;;;;;5075869;28;20256;-84
2022/10/08 10:10:14;;;;;;;13.25;10.38;;;22.10;99.90;;;;;;5075713;28;20245;-83
2022/10/08 10:12:48;;;;;;;13.13;10.35;;;22.30;99.90;;;;;;5076045;28;20208;-84
2022/10/08 10:15:22;;;;;;;13.50;10.18;;;22.60;99.90;;;;;;5075784;28;20200;-83
2022/10/08 10:17:54;;;;;;;10.38;9.35;;;22.80;99.90;;;;;;5075443;28;20221;-83
2022/10/08 10:20:30;;;;;;;10.20;9.07;;;23.00;99.90;;;;;;5075138;28;20266;-83
2022/10/08 10:23:01;;;;;;;10.02;9.02;;;23.00;99.90;;;;;;5075228;28;20212;-83
2022/10/08 10:25:36;;;;;;;10.50;9.40;;;23.20;99.90;;;;;;5075361;28;20210;-85
2022/10/08 10:28:14;;;;;;;11.93;10.18;;;23.30;99.90;;;;;;5075229;28;20228;-84
2022/10/08 10:30:51;;;;;;;9.50;8.50;;;23.50;99.90;;;;;;5075117;28;20201;-84
2022/10/08 10:33:24;;;;;;;10.15;9.13;;;23.60;99.90;;;;;;5075156;28;20219;-84
2022/10/08 10:35:55;;;;;;;11.45;8.85;;;23.70;99.90;;;;;;5075502;28;20212;-84
2022/10/08 10:38:27;;;;;;;11.57;10.35;;;23.90;99.90;;;;;;5074872;28;20233;-84
2022/10/08 10:41:05;;;;;;;10.95;9.85;;;24.10;99.90;;;;;;5074902;28;20225;-84
2022/10/08 10:43:44;;;;;;;10.35;9.45;;;24.50;99.90;;;;;;5075152;28;20209;-84
2022/10/08 10:46:36;;;;;;;12.23;10.13;;;24.70;99.90;;;;;;5074965;28;20215;-83
2022/10/08 10:49:14;;;;;;;11.68;10.57;;;24.70;99.90;;;;;;5073559;28;20216;-85
2022/10/08 10:51:57;;;;;;;10.35;9.38;;;24.80;99.90;;;;;;5074863;28;20205;-84
2022/10/08 10:54:45;;;;;;;11.20;10.10;;;24.80;99.90;;;;;;5074976;28;20197;-84
2022/10/08 10:57:36;;;;;;;9.20;8.40;;;24.70;99.90;;;;;;5073970;28;20225;-84
2022/10/08 11:00:09;;;;;;;12.18;9.63;;;24.50;99.90;;;;;;5074765;28;20208;-84
2022/10/08 11:02:43;;;;;;;9.00;8.23;;;24.60;99.90;;;;;;5075030;28;20224;-85
2022/10/08 11:05:18;;;;;;;9.82;8.93;;;24.80;99.90;;;;;;5074500;28;20208;-84
2022/10/08 11:08:02;;;;;;;15.30;9.98;;;25.00;99.90;;;;;;5074541;28;20221;-84
2022/10/08 11:10:40;;;;;;;9.32;8.43;;;25.20;99.90;;;;;;5074608;28;20209;-84
2022/10/08 11:13:21;;;;;;;12.02;9.32;;;25.00;99.90;;;;;;5074926;28;20213;-84
2022/10/08 11:16:01;;;;;;;12.18;9.27;;;25.10;99.90;;;;;;5074378;28;20204;-84
2022/10/08 11:18:36;;;;;;;11.48;9.98;;;25.00;99.90;;;;;;5074395;28;20279;-84
2022/10/08 11:21:18;;;;;;;10.18;9.18;;;25.00;99.90;;;;;;5074075;28;20225;-84
2022/10/08 11:24:12;;;;;;;12.32;9.45;;;25.20;99.90;;;;;;5074649;28;20209;-84
2022/10/08 11:26:48;;;;;;;12.25;9.70;;;25.50;99.90;;;;;;5074519;28;20312;-84
2022/10/08 11:29:20;;;;;;;12.07;9.93;;;25.80;99.90;;;;;;5074597;28;20220;-84
2022/10/08 11:31:51;;;;;;;10.85;9.80;;;25.70;99.90;;;;;;5073580;28;20201;-84
2022/10/08 11:34:23;;;;;;;10.30;9.20;;;25.70;99.90;;;;;;5074216;28;20212;-85
2022/10/08 11:37:08;;;;;;;11.27;10.18;;;25.60;99.90;;;;;;5074502;28;20220;-84
2022/10/08 11:39:47;;;;;;;11.05;10.00;;;25.80;99.90;;;;;;5073986;28;20216;-84
2022/10/08 11:42:21;;;;;;;9.65;8.65;;;26.00;99.90;;;;;;5074046;28;20231;-84
2022/10/08 11:44:50;;;;;;;10.73;9.60;;;26.10;99.90;;;;;;5073863;28;20204;-84
2022/10/08 11:47:49;;;;;;;12.00;10.63;;;26.00;99.90;;;;;;5073763;28;20225;-84
2022/10/08 11:50:29;;;;;;;13.50;9.63;;;25.90;99.90;;;;;;5073709;28;20231;-84
2022/10/08 11:53:01;;;;;;;10.88;9.82;;;25.70;99.90;;;;;;5073727;28;20208;-85
2022/10/08 11:55:32;;;;;;;12.40;11.10;;;25.70;99.90;;;;;;5073729;28;20205;-84
2022/10/08 11:58:03;;;;;;;12.23;10.63;;;25.60;99.90;;;;;;5073404;28;20233;-84
2022/10/08 12:00:41;;;;;;;16.20;11.73;;;25.40;99.90;;;;;;5073112;28;20296;-85
2022/10/08 12:03:23;;;;;;;15.35;9.52;;;25.40;99.90;;;;;;5073434;28;20201;-84
2022/10/08 12:05:54;;;;;;;11.98;10.13;;;25.30;99.90;;;;;;5073548;28;20208;-84
2022/10/08 12:08:54;;;;;;;10.32;9.35;;;25.30;99.90;;;;;;5073226;28;20262;-83
2022/10/08 12:11:49;;;;;;;11.05;10.00;;;25.20;99.90;;;;;;5011489;28;20203;-85
2022/10/08 12:14:45;;;;;;;11.60;10.48;;;25.40;99.90;;;;;;5071628;28;20209;-83
2022/10/08 12:17:13;;;;;;;13.55;11.27;;;25.60;99.90;;;;;;5073010;28;20228;-84
2022/10/08 12:20:08;;;;;;;11.57;10.48;;;25.60;99.90;;;;;;5073147;28;20205;-84
2022/10/08 12:22:45;;;;;;;12.05;10.85;;;25.60;99.90;;;;;;5073307;28;20228;-85
2022/10/08 12:25:38;;;;;;;11.15;9.90;;;25.70;99.90;;;;;;5073044;28;20209;-84
2022/10/08 12:28:48;;;;;;;11.20;10.10;;;25.90;99.90;;;;;;5073176;28;20232;-84
2022/10/08 12:31:30;;;;;;;14.57;11.27;;;26.10;99.90;;;;;;5073161;28;20200;-84
2022/10/08 12:34:01;;;;;;;12.10;10.85;;;26.10;99.90;;;;;;5073050;28;20209;-84
2022/10/08 12:36:44;;;;;;;24.58;11.55;;;26.20;99.90;;;;;;5073096;28;20224;-84
2022/10/08 12:39:21;;;;;;;10.50;9.63;;;26.20;99.90;;;;;;5072855;28;20225;-84
2022/10/08 12:42:00;;;;;;;15.15;11.55;;;26.10;99.90;;;;;;5071922;28;20229;-83
2022/10/08 12:44:40;;;;;;;14.63;10.77;;;26.00;99.90;;;;;;5073299;28;20212;-83
2022/10/08 12:47:24;;;;;;;16.30;8.77;;;25.90;99.90;;;;;;5073334;28;20231;-84
2022/10/08 12:49:58;;;;;;;10.45;9.38;;;25.80;99.90;;;;;;5072825;28;20205;-85
2022/10/08 12:52:35;;;;;;;11.90;10.70;;;26.10;99.90;;;;;;5072696;28;20201;-84
2022/10/08 12:55:05;;;;;;;12.00;10.82;;;26.20;99.90;;;;;;5072979;28;20212;-84
2022/10/08 12:57:36;;;;;;;23.35;10.48;;;26.10;99.90;;;;;;5072736;28;20225;-83